Time;durP1;ratioP1;P1;durP2;ratioP2;P2;SDS_P1;SDS_P2;PMS_P1;PMS_P2;Temp;Humidity;BMP_temperature;BMP_pressure;BME280_temperature;BME280_humidity;BME280_pressure;Samples;Min_cycle;Max_cycle;Signal;HPM_P1;HPM_P2
2023/11/13 00:02:22;;;;;;;3.50;2.80;;;9.40;99.90;;;;;;5051044;28;20233;-59
2023/11/13 00:04:49;;;;;;;2.67;2.30;;;9.50;99.90;;;;;;5051076;28;20625;-59
2023/11/13 00:07:15;;;;;;;2.50;2.30;;;9.60;99.90;;;;;;5051191;28;20208;-59
2023/11/13 00:09:42;;;;;;;3.20;2.30;;;9.60;99.90;;;;;;5051246;28;20210;-59
2023/11/13 00:12:10;;;;;;;2.80;2.47;;;9.60;99.90;;;;;;5050213;28;20225;-59
2023/11/13 00:14:37;;;;;;;2.53;1.97;;;9.60;99.90;;;;;;5051007;28;20247;-59
2023/11/13 00:17:05;;;;;;;2.53;2.33;;;9.60;99.90;;;;;;5051128;28;20206;-60
2023/11/13 00:19:32;;;;;;;2.57;2.37;;;9.60;99.90;;;;;;5035081;28;20197;-59
2023/11/13 00:21:58;;;;;;;3.03;2.40;;;9.60;99.90;;;;;;5051102;28;20248;-59
2023/11/13 00:24:25;;;;;;;2.10;1.90;;;9.50;99.90;;;;;;5051103;28;20225;-59
2023/11/13 00:26:52;;;;;;;2.17;1.97;;;9.50;99.90;;;;;;5051063;28;20209;-59
2023/11/13 00:29:19;;;;;;;2.40;2.20;;;9.40;99.90;;;;;;5050883;28;20626;-59
2023/11/13 00:31:46;;;;;;;2.57;2.17;;;9.30;99.90;;;;;;5050884;28;20235;-59
2023/11/13 00:34:14;;;;;;;2.37;2.17;;;9.30;99.90;;;;;;5050887;28;20217;-59
2023/11/13 00:36:40;;;;;;;2.97;2.73;;;9.20;99.90;;;;;;5051173;28;20208;-59
2023/11/13 00:39:10;;;;;;;2.73;2.47;;;9.10;99.90;;;;;;5051043;28;20248;-59
2023/11/13 00:41:40;;;;;;;3.67;2.30;;;9.10;99.90;;;;;;5050922;28;20293;-59
2023/11/13 00:44:07;;;;;;;3.07;2.30;;;9.00;99.90;;;;;;5050501;28;20327;-59
2023/11/13 00:46:34;;;;;;;3.10;2.47;;;8.90;99.90;;;;;;5051115;28;20209;-59
2023/11/13 00:49:01;;;;;;;3.60;2.90;;;8.90;99.90;;;;;;5051095;28;20205;-59
2023/11/13 00:51:29;;;;;;;2.80;2.60;;;8.80;99.90;;;;;;5050971;28;20239;-59
2023/11/13 00:53:56;;;;;;;2.77;2.57;;;8.80;99.90;;;;;;5050662;28;20205;-60
2023/11/13 00:56:23;;;;;;;3.07;2.77;;;8.70;99.90;;;;;;5050693;28;20671;-59
2023/11/13 00:58:50;;;;;;;3.10;2.60;;;8.70;99.90;;;;;;5050479;28;20205;-59
2023/11/13 01:01:16;;;;;;;2.97;2.67;;;8.60;99.90;;;;;;5050806;28;20209;-60
2023/11/13 01:03:43;;;;;;;3.23;2.93;;;8.60;99.90;;;;;;5050626;28;20236;-59
2023/11/13 01:06:15;;;;;;;3.07;2.73;;;8.70;99.90;;;;;;5050882;28;20214;-59
2023/11/13 01:08:44;;;;;;;3.13;2.83;;;8.70;99.90;;;;;;5050647;28;20214;-60
2023/11/13 01:11:11;;;;;;;4.40;4.00;;;8.70;99.90;;;;;;5050352;28;20213;-59
2023/11/13 01:13:38;;;;;;;3.60;3.03;;;8.70;99.90;;;;;;5050277;28;20228;-59
2023/11/13 01:16:06;;;;;;;3.43;3.13;;;8.70;99.90;;;;;;5050704;28;20205;-59
2023/11/13 01:18:32;;;;;;;3.90;3.47;;;8.80;99.90;;;;;;5050322;28;20663;-59
2023/11/13 01:20:59;;;;;;;4.33;3.40;;;8.90;99.90;;;;;;5050642;28;20225;-59
2023/11/13 01:23:26;;;;;;;3.80;3.40;;;8.90;99.90;;;;;;5053069;28;20714;-58
2023/11/13 01:25:54;;;;;;;4.50;3.53;;;8.90;99.90;;;;;;5054234;28;20609;-59
2023/11/13 01:28:21;;;;;;;4.00;3.60;;;8.90;99.90;;;;;;5054268;28;20206;-58
2023/11/13 01:30:48;;;;;;;3.60;3.13;;;8.80;99.90;;;;;;5054497;28;20205;-59
2023/11/13 01:33:14;;;;;;;3.30;3.00;;;8.80;99.90;;;;;;5054128;28;20241;-58
2023/11/13 01:35:41;;;;;;;3.90;3.50;;;8.70;99.90;;;;;;5054173;28;20228;-60
2023/11/13 01:38:08;;;;;;;4.70;3.53;;;8.80;99.90;;;;;;5054054;28;20217;-59
2023/11/13 01:40:34;;;;;;;3.43;3.13;;;8.70;99.90;;;;;;5038191;28;20210;-60
2023/11/13 01:43:02;;;;;;;3.50;3.20;;;8.60;99.90;;;;;;5053927;28;20343;-58
2023/11/13 01:45:29;;;;;;;2.77;2.57;;;8.50;99.90;;;;;;5053885;28;20213;-60
2023/11/13 01:47:56;;;;;;;2.83;2.57;;;8.50;99.90;;;;;;5054026;28;20216;-59
2023/11/13 01:50:23;;;;;;;3.33;2.43;;;8.50;99.90;;;;;;5053892;28;20213;-59
2023/11/13 01:52:51;;;;;;;2.63;2.43;;;8.50;99.90;;;;;;5053627;28;20228;-60
2023/11/13 01:55:18;;;;;;;2.90;2.40;;;8.60;99.90;;;;;;5053729;28;20233;-59
2023/11/13 01:57:45;;;;;;;2.97;2.67;;;8.60;99.90;;;;;;5053764;28;20297;-59
2023/11/13 02:00:15;;;;;;;3.23;2.73;;;8.70;99.90;;;;;;5053702;28;20202;-58
2023/11/13 02:02:42;;;;;;;3.07;2.77;;;8.80;99.90;;;;;;5053542;28;20592;-58
2023/11/13 02:05:09;;;;;;;4.10;3.40;;;8.80;99.90;;;;;;5053415;28;20233;-58
2023/11/13 02:07:36;;;;;;;3.93;2.77;;;8.80;99.90;;;;;;5053565;28;20201;-59
2023/11/13 02:10:04;;;;;;;3.17;2.87;;;8.80;99.90;;;;;;5053200;28;20255;-59
2023/11/13 02:12:32;;;;;;;4.57;2.67;;;8.80;99.90;;;;;;5052897;28;20260;-59
2023/11/13 02:14:59;;;;;;;2.93;2.63;;;8.80;99.90;;;;;;5053224;28;20590;-59
2023/11/13 02:17:27;;;;;;;3.90;2.70;;;8.80;99.90;;;;;;5053297;28;20216;-59
2023/11/13 02:19:54;;;;;;;2.70;2.50;;;8.90;99.90;;;;;;5053304;28;20205;-59
2023/11/13 02:22:20;;;;;;;3.47;2.90;;;9.10;99.90;;;;;;5053270;28;20230;-59
2023/11/13 02:24:48;;;;;;;3.47;2.97;;;9.20;99.90;;;;;;5053191;28;20220;-60
2023/11/13 02:27:17;;;;;;;3.73;2.70;;;9.20;99.90;;;;;;5053140;28;20209;-59
2023/11/13 02:29:44;;;;;;;4.17;2.63;;;9.30;99.90;;;;;;5053080;28;20206;-59
2023/11/13 02:32:11;;;;;;;3.67;2.67;;;9.40;99.90;;;;;;5052703;28;20234;-59
2023/11/13 02:34:38;;;;;;;3.33;2.87;;;9.50;99.90;;;;;;5051743;28;20225;-59
2023/11/13 02:37:05;;;;;;;3.13;2.80;;;9.60;99.90;;;;;;5053255;28;20208;-59
2023/11/13 02:39:32;;;;;;;3.40;2.40;;;9.80;99.90;;;;;;5053045;28;20213;-59
2023/11/13 02:42:00;;;;;;;3.47;2.50;;;9.80;99.90;;;;;;5052979;28;20257;-59
2023/11/13 02:44:26;;;;;;;4.60;2.70;;;9.90;99.90;;;;;;5052485;28;20224;-59
2023/11/13 02:46:55;;;;;;;2.60;2.20;;;9.70;99.90;;;;;;5052848;28;20352;-59
2023/11/13 02:49:21;;;;;;;2.77;2.17;;;9.80;99.90;;;;;;5052728;28;20205;-59
2023/11/13 02:51:48;;;;;;;2.77;2.10;;;9.90;99.90;;;;;;5052875;28;20202;-59
2023/11/13 02:54:15;;;;;;;2.93;2.20;;;9.80;99.90;;;;;;5052446;28;20581;-59
2023/11/13 02:56:41;;;;;;;3.60;2.60;;;10.00;99.90;;;;;;5052589;28;20198;-59
2023/11/13 02:59:09;;;;;;;2.67;1.90;;;10.10;99.90;;;;;;5052499;28;20202;-59
2023/11/13 03:01:36;;;;;;;3.30;2.00;;;10.10;99.90;;;;;;5035941;28;20253;-59
2023/11/13 03:04:03;;;;;;;2.13;1.70;;;10.10;99.90;;;;;;5052443;28;20232;-59
2023/11/13 03:06:30;;;;;;;3.70;1.87;;;10.20;99.90;;;;;;5052478;28;20245;-59
2023/11/13 03:08:57;;;;;;;3.17;1.70;;;10.20;99.90;;;;;;5052333;28;20205;-59
2023/11/13 03:11:24;;;;;;;1.80;1.50;;;10.30;99.90;;;;;;5052125;28;20296;-60
2023/11/13 03:13:50;;;;;;;3.37;1.93;;;10.40;99.90;;;;;;5051908;28;20247;-59
2023/11/13 03:16:20;;;;;;;2.37;1.80;;;10.60;99.90;;;;;;5052009;28;20201;-60
2023/11/13 03:18:47;;;;;;;2.80;1.70;;;10.60;99.90;;;;;;5052206;28;20209;-59
2023/11/13 03:21:13;;;;;;;3.73;1.50;;;10.70;99.90;;;;;;5052130;28;20217;-59
2023/11/13 03:23:40;;;;;;;5.43;3.93;;;10.80;99.90;;;;;;5051723;28;20251;-60
2023/11/13 03:26:07;;;;;;;6.13;4.83;;;10.80;99.90;;;;;;5052080;28;20209;-60
2023/11/13 03:28:33;;;;;;;6.40;5.23;;;10.90;99.90;;;;;;5051644;28;20201;-59
2023/11/13 03:31:01;;;;;;;5.27;4.30;;;10.90;99.90;;;;;;5051855;28;20219;-59
2023/11/13 03:33:29;;;;;;;3.50;3.20;;;11.00;99.90;;;;;;5051419;28;20225;-59
2023/11/13 03:35:55;;;;;;;2.80;2.40;;;11.10;99.90;;;;;;5052131;28;20256;-59
2023/11/13 03:38:22;;;;;;;3.40;2.50;;;11.20;99.90;;;;;;5051669;28;20233;-59
2023/11/13 03:40:49;;;;;;;1.90;1.60;;;11.30;99.90;;;;;;5051804;28;20201;-60
2023/11/13 03:43:15;;;;;;;1.90;1.37;;;11.40;99.90;;;;;;5051311;28;20584;-59
2023/11/13 03:45:42;;;;;;;1.67;1.50;;;11.50;99.90;;;;;;5051650;28;20217;-59
2023/11/13 03:48:09;;;;;;;4.10;2.20;;;11.50;99.90;;;;;;5051857;28;20213;-59
2023/11/13 03:50:37;;;;;;;1.97;1.40;;;11.50;99.90;;;;;;5051418;28;20224;-58
2023/11/13 03:53:04;;;;;;;3.70;1.60;;;11.60;99.90;;;;;;5051275;28;20295;-58
2023/11/13 03:55:31;;;;;;;2.77;1.50;;;11.70;99.90;;;;;;5051378;28;20284;-58
2023/11/13 03:57:57;;;;;;;3.13;1.33;;;11.80;99.90;;;;;;5051327;28;20209;-59
2023/11/13 04:00:24;;;;;;;1.77;1.30;;;11.90;99.90;;;;;;5051178;28;20690;-58
2023/11/13 04:02:51;;;;;;;2.67;1.70;;;11.90;99.90;;;;;;5051443;28;20244;-58
2023/11/13 04:05:18;;;;;;;3.50;1.50;;;11.90;99.90;;;;;;5051169;28;20248;-58
2023/11/13 04:07:46;;;;;;;2.60;1.67;;;12.00;99.90;;;;;;5051415;28;20201;-59
2023/11/13 04:10:14;;;;;;;2.20;1.43;;;12.00;99.90;;;;;;5051366;28;20476;-59
2023/11/13 04:12:42;;;;;;;4.80;1.50;;;12.10;99.90;;;;;;5035665;28;20230;-59
2023/11/13 04:15:09;;;;;;;3.77;3.00;;;12.20;99.90;;;;;;5051236;28;20212;-59
2023/11/13 04:17:36;;;;;;;2.87;2.00;;;12.20;99.90;;;;;;5051261;28;20205;-59
2023/11/13 04:20:05;;;;;;;2.00;1.70;;;12.20;99.90;;;;;;5051304;28;20212;-58
2023/11/13 04:22:32;;;;;;;2.30;1.47;;;12.20;99.90;;;;;;5051480;28;20233;-58
2023/11/13 04:25:01;;;;;;;2.17;1.50;;;12.20;99.90;;;;;;5051341;28;20320;-59
2023/11/13 04:27:28;;;;;;;2.87;1.47;;;12.10;99.90;;;;;;5051333;28;20209;-57
2023/11/13 04:29:55;;;;;;;1.77;1.20;;;12.20;99.90;;;;;;5051298;28;20205;-59
2023/11/13 04:32:22;;;;;;;2.53;1.20;;;12.20;99.90;;;;;;5050930;28;20275;-58
2023/11/13 04:34:49;;;;;;;2.43;1.60;;;12.30;99.90;;;;;;5051023;28;20580;-58
2023/11/13 04:37:16;;;;;;;2.27;1.30;;;12.30;99.90;;;;;;5051014;28;20205;-59
2023/11/13 04:39:43;;;;;;;2.10;1.13;;;12.30;99.90;;;;;;5051183;28;20201;-59
2023/11/13 04:42:11;;;;;;;1.63;1.00;;;12.30;99.90;;;;;;5051083;28;20550;-59
2023/11/13 04:44:38;;;;;;;1.93;1.23;;;12.50;99.90;;;;;;5050805;28;20771;-59
2023/11/13 04:47:06;;;;;;;1.90;1.23;;;12.50;99.90;;;;;;5051026;28;20209;-58
2023/11/13 04:49:33;;;;;;;1.43;1.30;;;12.60;99.90;;;;;;5050769;28;20206;-58
2023/11/13 04:52:00;;;;;;;2.77;1.17;;;12.60;99.90;;;;;;5050849;28;20234;-58
2023/11/13 04:54:27;;;;;;;3.57;1.57;;;12.60;99.90;;;;;;5050762;28;20202;-58
2023/11/13 04:56:55;;;;;;;3.10;1.33;;;12.70;99.90;;;;;;5051734;28;20210;-59
2023/11/13 04:59:23;;;;;;;2.97;1.40;;;12.70;99.90;;;;;;5054643;28;20265;-59
2023/11/13 05:01:50;;;;;;;2.77;1.30;;;12.80;99.90;;;;;;5054539;28;20248;-58
2023/11/13 05:04:17;;;;;;;2.03;1.40;;;12.80;99.90;;;;;;5054206;28;20217;-59
2023/11/13 05:06:44;;;;;;;3.43;1.33;;;12.80;99.90;;;;;;5054677;28;20320;-59
2023/11/13 05:09:12;;;;;;;3.53;1.43;;;12.90;99.90;;;;;;5054664;28;20209;-59
2023/11/13 05:11:40;;;;;;;5.70;2.00;;;12.90;99.90;;;;;;5054231;28;20587;-59
2023/11/13 05:14:06;;;;;;;3.93;1.50;;;13.00;99.90;;;;;;5054721;28;20284;-59
2023/11/13 05:16:34;;;;;;;3.00;1.60;;;12.90;99.90;;;;;;5054267;28;20211;-59
2023/11/13 05:19:03;;;;;;;3.20;1.10;;;12.90;99.90;;;;;;5054258;28;20220;-60
2023/11/13 05:21:30;;;;;;;6.23;1.80;;;12.90;99.90;;;;;;5054227;28;20243;-59
2023/11/13 05:23:56;;;;;;;3.90;1.80;;;13.00;99.90;;;;;;5054061;28;20752;-58
2023/11/13 05:26:23;;;;;;;5.03;1.50;;;13.00;99.90;;;;;;5054375;28;20205;-59
2023/11/13 05:28:50;;;;;;;5.63;1.63;;;13.00;99.90;;;;;;5054400;28;20208;-59
2023/11/13 05:31:17;;;;;;;4.63;1.63;;;13.10;99.90;;;;;;5054056;28;20205;-59
2023/11/13 05:33:45;;;;;;;6.63;1.80;;;13.10;99.90;;;;;;5053826;28;20237;-60
2023/11/13 05:36:12;;;;;;;5.17;2.40;;;13.10;99.90;;;;;;5054327;28;20229;-59
2023/11/13 05:38:41;;;;;;;5.27;2.30;;;13.10;99.90;;;;;;5054277;28;20213;-59
2023/11/13 05:41:08;;;;;;;4.83;1.80;;;13.10;99.90;;;;;;5053780;28;20675;-60
2023/11/13 05:43:35;;;;;;;6.93;1.70;;;13.10;99.90;;;;;;5053583;28;20225;-60
2023/11/13 05:46:02;;;;;;;7.73;1.87;;;13.20;99.90;;;;;;5053779;28;20255;-59
2023/11/13 05:48:29;;;;;;;6.60;2.03;;;13.00;99.90;;;;;;5053927;28;20209;-58
2023/11/13 05:50:57;;;;;;;6.27;2.20;;;13.00;99.90;;;;;;5054176;28;20206;-58
2023/11/13 05:53:24;;;;;;;5.43;1.70;;;13.00;99.90;;;;;;5053574;28;20237;-58
2023/11/13 05:55:51;;;;;;;5.07;1.70;;;13.00;99.90;;;;;;5053572;28;20228;-60
2023/11/13 05:58:18;;;;;;;6.33;1.90;;;13.10;99.90;;;;;;5053280;28;20214;-59
2023/11/13 06:00:45;;;;;;;9.70;2.63;;;13.10;99.90;;;;;;5053424;28;20249;-59
2023/11/13 06:03:12;;;;;;;9.50;2.20;;;13.20;99.90;;;;;;5053364;28;20232;-58
2023/11/13 06:05:38;;;;;;;6.27;2.37;;;13.20;99.90;;;;;;5053501;28;20218;-58
2023/11/13 06:08:06;;;;;;;6.67;1.80;;;13.20;99.90;;;;;;5053312;28;20655;-60
2023/11/13 06:10:33;;;;;;;9.83;2.83;;;13.20;99.90;;;;;;5053979;28;20213;-60
2023/11/13 06:13:02;;;;;;;11.13;2.70;;;13.20;99.90;;;;;;5052739;28;20673;-59
2023/11/13 06:15:29;;;;;;;10.03;2.27;;;13.20;99.90;;;;;;5052881;28;20559;-59
2023/11/13 06:17:57;;;;;;;7.93;2.30;;;13.30;99.90;;;;;;5053243;28;20213;-58
2023/11/13 06:20:24;;;;;;;12.37;2.67;;;13.30;99.90;;;;;;5052944;28;20206;-58
2023/11/13 06:22:51;;;;;;;10.80;2.53;;;13.40;99.90;;;;;;5052701;28;20229;-58
2023/11/13 06:25:19;;;;;;;7.87;2.97;;;13.40;99.90;;;;;;5052563;28;20225;-58
2023/11/13 06:27:46;;;;;;;7.83;2.83;;;13.40;99.90;;;;;;5052606;28;20201;-58
2023/11/13 06:30:13;;;;;;;10.37;2.63;;;13.50;99.90;;;;;;5052872;28;20206;-58
2023/11/13 06:32:40;;;;;;;15.27;2.97;;;13.50;99.90;;;;;;5052603;28;20230;-58
2023/11/13 06:35:08;;;;;;;12.27;3.07;;;13.50;99.90;;;;;;5052604;28;20210;-58
2023/11/13 06:37:34;;;;;;;11.73;2.90;;;13.50;99.90;;;;;;5052918;28;20210;-65
2023/11/13 06:40:01;;;;;;;12.10;3.00;;;13.50;99.90;;;;;;5052681;28;20206;-58
2023/11/13 06:42:29;;;;;;;7.93;3.10;;;13.60;99.90;;;;;;5052358;28;20236;-58
2023/11/13 06:44:56;;;;;;;9.40;2.50;;;13.60;99.90;;;;;;5052344;28;20761;-58
2023/11/13 06:47:22;;;;;;;9.90;3.27;;;13.60;99.90;;;;;;5052318;28;20647;-58
2023/11/13 06:49:49;;;;;;;9.73;3.40;;;13.70;99.90;;;;;;5052403;28;20224;-59
2023/11/13 06:52:16;;;;;;;12.00;4.00;;;13.70;99.90;;;;;;5052457;28;20624;-58
2023/11/13 06:54:43;;;;;;;10.70;2.97;;;13.70;99.90;;;;;;5052243;28;20233;-59
2023/11/13 06:57:10;;;;;;;11.00;3.00;;;13.80;99.90;;;;;;5052271;28;20213;-59
2023/11/13 06:59:40;;;;;;;7.87;2.80;;;13.70;99.90;;;;;;5052311;28;20275;-59
2023/11/13 07:02:07;;;;;;;7.17;2.77;;;13.70;99.90;;;;;;5052158;28;20230;-60
2023/11/13 07:04:34;;;;;;;9.03;3.13;;;13.70;99.90;;;;;;5052071;28;20628;-61
2023/11/13 07:07:04;;;;;;;11.10;3.17;;;13.80;99.90;;;;;;5052391;28;20219;-59
2023/11/13 07:09:33;;;;;;;10.27;2.77;;;13.90;99.90;;;;;;5052225;28;20205;-58
2023/11/13 07:12:00;;;;;;;10.20;2.90;;;13.90;99.90;;;;;;5052574;28;20279;-59
2023/11/13 07:14:27;;;;;;;10.63;3.03;;;13.90;99.90;;;;;;5052082;28;20259;-59
2023/11/13 07:16:55;;;;;;;8.73;2.70;;;13.90;99.90;;;;;;5052114;28;20280;-58
2023/11/13 07:19:23;;;;;;;8.77;2.80;;;13.90;99.90;;;;;;5051536;28;20209;-58
2023/11/13 07:21:50;;;;;;;9.80;3.33;;;13.80;99.90;;;;;;5051738;28;20225;-59
2023/11/13 07:24:17;;;;;;;10.70;3.57;;;13.80;99.90;;;;;;5051794;28;20297;-59
2023/11/13 07:26:44;;;;;;;10.70;3.57;;;13.80;99.90;;;;;;5051878;28;20221;-58
2023/11/13 07:29:11;;;;;;;11.73;5.73;;;13.80;99.90;;;;;;5052511;28;20737;-58
2023/11/13 07:31:38;;;;;;;11.60;4.27;;;13.90;99.90;;;;;;5052852;28;20201;-58
2023/11/13 07:34:07;;;;;;;10.33;3.70;;;13.90;99.90;;;;;;5052484;28;20209;-58
2023/11/13 07:36:34;;;;;;;10.23;3.63;;;13.80;99.90;;;;;;5051831;28;20207;-58
2023/11/13 07:39:00;;;;;;;9.13;3.53;;;13.80;99.90;;;;;;5051434;28;20220;-58
2023/11/13 07:41:27;;;;;;;10.20;3.10;;;13.80;99.90;;;;;;5051861;28;20654;-58
2023/11/13 07:43:56;;;;;;;7.73;2.63;;;13.90;99.90;;;;;;5051588;28;20237;-58
2023/11/13 07:46:23;;;;;;;9.27;2.80;;;13.90;99.90;;;;;;5051709;28;20308;-59
2023/11/13 07:48:50;;;;;;;9.03;3.13;;;13.80;99.90;;;;;;5051984;28;20201;-58
2023/11/13 07:51:19;;;;;;;10.83;3.13;;;13.90;99.90;;;;;;5051510;28;20241;-58
2023/11/13 07:53:48;;;;;;;7.47;3.07;;;13.80;99.90;;;;;;5051662;28;20249;-60
2023/11/13 07:56:17;;;;;;;7.90;3.17;;;13.80;99.90;;;;;;5051471;28;20574;-59
2023/11/13 07:58:44;;;;;;;8.83;3.20;;;13.80;99.90;;;;;;5051183;28;20210;-59
2023/11/13 08:01:11;;;;;;;9.27;3.70;;;13.90;99.90;;;;;;5051027;28;20710;-58
2023/11/13 08:03:38;;;;;;;8.23;3.73;;;13.70;99.90;;;;;;5050710;28;20225;-58
2023/11/13 08:06:06;;;;;;;7.70;3.33;;;13.60;99.90;;;;;;5051575;28;20225;-59
2023/11/13 08:08:34;;;;;;;6.83;2.80;;;13.70;99.90;;;;;;5050998;28;20292;-59
2023/11/13 08:11:01;;;;;;;8.00;3.47;;;13.80;99.90;;;;;;5050917;28;20248;-59
2023/11/13 08:13:27;;;;;;;10.70;4.80;;;13.80;99.90;;;;;;5050056;28;20312;-59
2023/11/13 08:15:54;;;;;;;10.43;3.57;;;13.80;99.90;;;;;;5050441;28;20580;-59
2023/11/13 08:18:22;;;;;;;7.93;3.77;;;13.80;99.90;;;;;;5050700;28;20213;-59
2023/11/13 08:20:49;;;;;;;8.90;4.17;;;13.80;99.90;;;;;;5050939;28;20300;-59
2023/11/13 08:23:16;;;;;;;6.93;2.87;;;13.70;99.90;;;;;;5050656;28;20244;-59
2023/11/13 08:25:46;;;;;;;10.03;2.77;;;13.80;99.90;;;;;;5051200;28;20228;-59
2023/11/13 08:28:13;;;;;;;6.83;2.43;;;13.80;99.90;;;;;;5051063;28;20205;-60
2023/11/13 08:30:41;;;;;;;10.60;2.97;;;13.80;99.90;;;;;;5049976;28;20328;-58
2023/11/13 08:33:09;;;;;;;8.07;2.43;;;13.70;99.90;;;;;;5049692;28;20257;-58
2023/11/13 08:35:36;;;;;;;7.87;2.30;;;13.80;99.90;;;;;;5051116;28;20271;-60
2023/11/13 08:38:03;;;;;;;9.27;2.83;;;13.70;99.90;;;;;;5051074;28;20631;-59
2023/11/13 08:40:30;;;;;;;9.77;2.50;;;13.70;99.90;;;;;;5050771;28;20320;-58
2023/11/13 08:42:58;;;;;;;7.93;2.97;;;13.70;99.90;;;;;;5050954;28;20261;-58
2023/11/13 08:45:25;;;;;;;8.33;2.30;;;13.70;99.90;;;;;;5050420;28;20259;-58
2023/11/13 08:47:53;;;;;;;6.87;2.10;;;13.70;99.90;;;;;;5050995;28;20202;-58
2023/11/13 08:50:21;;;;;;;8.03;2.57;;;13.70;99.90;;;;;;5050747;28;20279;-58
2023/11/13 08:52:50;;;;;;;10.97;2.83;;;13.70;99.90;;;;;;5034667;28;20217;-58
2023/11/13 08:55:18;;;;;;;7.97;2.40;;;13.70;99.90;;;;;;5050423;28;20205;-63
2023/11/13 08:57:45;;;;;;;6.80;2.57;;;13.70;99.90;;;;;;5050277;28;20293;-57
2023/11/13 09:00:20;;;;;;;8.33;3.13;;;13.70;99.90;;;;;;5051070;28;20292;-57
2023/11/13 09:02:47;;;;;;;8.27;2.57;;;13.70;99.90;;;;;;5034373;28;20229;-57
2023/11/13 09:05:14;;;;;;;8.40;2.40;;;13.70;99.90;;;;;;5050417;28;20210;-57
2023/11/13 09:07:41;;;;;;;10.53;2.93;;;13.70;99.90;;;;;;5050387;28;20209;-57
2023/11/13 09:10:10;;;;;;;8.60;1.90;;;13.50;99.90;;;;;;5050478;28;20691;-60
2023/11/13 09:12:39;;;;;;;12.03;2.60;;;13.50;99.90;;;;;;5050378;28;20241;-58
2023/11/13 09:15:12;;;;;;;6.33;2.10;;;13.50;99.90;;;;;;5050542;28;20229;-58
2023/11/13 09:17:45;;;;;;;6.20;2.13;;;13.60;99.90;;;;;;5050595;28;20293;-58
2023/11/13 09:20:15;;;;;;;5.73;2.20;;;13.70;99.90;;;;;;5050361;28;20213;-58
2023/11/13 09:22:42;;;;;;;10.67;5.67;;;13.80;99.90;;;;;;5050243;28;20233;-58
2023/11/13 09:25:13;;;;;;;6.43;2.07;;;13.80;99.90;;;;;;5050548;28;20205;-58
2023/11/13 09:27:41;;;;;;;5.97;2.03;;;13.90;99.90;;;;;;5050363;28;20264;-58
2023/11/13 09:30:10;;;;;;;7.23;2.33;;;13.80;99.90;;;;;;5050601;28;20603;-58
2023/11/13 09:32:38;;;;;;;6.83;2.40;;;13.80;99.90;;;;;;5050165;28;20234;-58
2023/11/13 09:35:07;;;;;;;9.50;3.00;;;13.90;99.90;;;;;;5050432;28;20296;-58
2023/11/13 09:37:34;;;;;;;5.37;1.87;;;13.90;99.90;;;;;;5050221;28;20588;-58
2023/11/13 09:40:00;;;;;;;5.27;1.90;;;13.90;99.90;;;;;;5050306;28;20213;-58
2023/11/13 09:42:31;;;;;;;5.37;2.20;;;13.90;99.90;;;;;;5050224;28;20225;-58
2023/11/13 09:45:05;;;;;;;5.03;1.80;;;14.00;99.90;;;;;;5053818;28;20690;-58
2023/11/13 09:47:34;;;;;;;7.20;4.27;;;14.10;99.90;;;;;;5054221;28;20225;-58
2023/11/13 09:50:15;;;;;;;5.63;2.37;;;14.00;99.90;;;;;;5053608;28;20206;-58
2023/11/13 09:52:46;;;;;;;6.67;1.60;;;14.20;99.90;;;;;;5053631;28;20275;-58
2023/11/13 09:55:18;;;;;;;5.87;1.57;;;14.20;99.90;;;;;;5053727;28;20679;-58
2023/11/13 09:57:45;;;;;;;4.30;1.80;;;14.30;99.90;;;;;;5053715;28;20198;-58
2023/11/13 10:00:16;;;;;;;2.73;1.80;;;14.20;99.90;;;;;;5053659;28;20672;-58
2023/11/13 10:02:46;;;;;;;6.23;1.40;;;14.20;99.90;;;;;;5053637;28;20235;-59
2023/11/13 10:05:15;;;;;;;3.47;1.30;;;14.20;99.90;;;;;;5053459;28;20613;-58
2023/11/13 10:07:47;;;;;;;11.03;5.87;;;14.20;99.90;;;;;;5053264;28;20349;-58
2023/11/13 10:10:17;;;;;;;20.50;11.33;;;14.30;99.90;;;;;;5053671;28;20216;-58
2023/11/13 10:12:44;;;;;;;8.73;5.37;;;14.30;99.90;;;;;;5053125;28;20225;-58
2023/11/13 10:15:13;;;;;;;4.83;1.90;;;14.40;99.90;;;;;;5053517;28;20304;-58
2023/11/13 10:17:43;;;;;;;2.67;1.40;;;14.40;99.90;;;;;;5053289;28;20633;-58
2023/11/13 10:20:10;;;;;;;3.23;1.60;;;14.50;99.90;;;;;;5053118;28;20213;-58
2023/11/13 10:22:39;;;;;;;3.60;1.60;;;14.50;99.90;;;;;;5079201;22;20257;-56
2023/11/13 10:25:11;;;;;;;4.03;1.50;;;14.60;99.90;;;;;;5064693;28;20205;-56
2023/11/13 10:27:39;;;;;;;3.80;1.43;;;14.70;99.90;;;;;;5062615;28;20705;-56
2023/11/13 10:30:07;;;;;;;2.90;1.30;;;14.80;99.90;;;;;;5061476;28;20205;-58
2023/11/13 10:32:34;;;;;;;2.67;1.20;;;14.70;99.90;;;;;;5062861;28;20229;-56
2023/11/13 10:35:03;;;;;;;3.17;1.20;;;14.90;99.90;;;;;;5073011;28;20228;-57
2023/11/13 10:37:31;;;;;;;3.70;1.40;;;14.80;99.90;;;;;;5072831;28;20208;-55
2023/11/13 10:39:59;;;;;;;4.53;1.50;;;14.80;99.90;;;;;;5072902;28;20251;-55
2023/11/13 10:42:27;;;;;;;6.07;1.70;;;14.80;99.90;;;;;;5072689;28;20225;-56
2023/11/13 10:44:57;;;;;;;6.73;1.90;;;14.60;99.90;;;;;;5072696;28;20213;-56
2023/11/13 10:47:25;;;;;;;8.50;1.93;;;14.60;99.90;;;;;;5072546;28;20694;-56
2023/11/13 10:49:53;;;;;;;3.60;1.97;;;14.60;99.90;;;;;;5056751;28;20204;-56
2023/11/13 10:52:21;;;;;;;3.23;1.30;;;14.60;99.90;;;;;;5072622;28;20224;-55
2023/11/13 10:54:50;;;;;;;2.90;1.33;;;14.60;99.90;;;;;;5071725;28;20201;-56
2023/11/13 10:57:20;;;;;;;4.30;1.67;;;14.50;99.90;;;;;;5073485;28;20649;-56
2023/11/13 10:59:47;;;;;;;4.77;1.63;;;14.60;99.90;;;;;;5072719;28;20670;-55
2023/11/13 11:02:25;;;;;;;4.67;2.17;;;14.60;99.90;;;;;;5072951;28;20225;-56
2023/11/13 11:04:56;;;;;;;3.67;1.60;;;14.80;99.90;;;;;;5056102;28;20232;-56
2023/11/13 11:07:26;;;;;;;4.80;1.97;;;14.90;99.90;;;;;;5072306;28;20698;-58
2023/11/13 11:09:59;;;;;;;5.37;1.67;;;15.10;99.90;;;;;;5057158;28;20204;-54
2023/11/13 11:12:40;;;;;;;3.17;1.50;;;15.10;99.90;;;;;;5072619;28;20232;-55
2023/11/13 11:15:31;;;;;;;3.40;1.57;;;15.10;99.90;;;;;;5072307;28;20212;-55
2023/11/13 11:18:05;;;;;;;4.60;1.90;;;15.20;99.90;;;;;;5057491;28;20205;-56
2023/11/13 11:20:40;;;;;;;4.00;1.70;;;15.30;99.90;;;;;;5071690;28;20266;-56
2023/11/13 11:23:08;;;;;;;3.73;1.60;;;15.30;99.90;;;;;;5072069;28;20224;-56
2023/11/13 11:25:46;;;;;;;6.75;1.80;;;15.40;99.90;;;;;;5071704;28;20209;-55
2023/11/13 11:28:44;;;;;;;4.50;1.70;;;15.40;99.90;;;;;;5071909;28;20256;-55
2023/11/13 11:31:48;;;;;;;4.20;1.70;;;15.40;99.90;;;;;;5060371;28;20735;-56
2023/11/13 11:34:21;;;;;;;3.73;1.80;;;15.40;99.90;;;;;;5061276;28;20204;-55
2023/11/13 11:36:49;;;;;;;5.73;2.47;;;15.40;99.90;;;;;;5072201;28;20197;-55
2023/11/13 11:39:21;;;;;;;5.63;1.80;;;15.40;99.90;;;;;;5071669;28;20205;-56
2023/11/13 11:41:51;;;;;;;7.27;2.27;;;15.40;99.90;;;;;;5071670;28;20212;-57
2023/11/13 11:44:22;;;;;;;4.03;2.27;;;15.50;99.90;;;;;;5071784;28;20204;-57
2023/11/13 11:46:50;;;;;;;4.77;2.10;;;15.60;99.90;;;;;;5071505;28;20212;-56
2023/11/13 11:49:24;;;;;;;4.03;1.83;;;15.50;99.90;;;;;;5071486;28;20209;-56
2023/11/13 11:51:52;;;;;;;4.38;2.70;;;15.60;99.90;;;;;;5071380;28;20674;-56
2023/11/13 11:54:21;;;;;;;2.03;1.83;;;15.60;99.90;;;;;;5072429;28;20267;-57
2023/11/13 11:56:58;;;;;;;3.40;1.77;;;15.70;99.90;;;;;;5071547;28;20235;-58
2023/11/13 11:59:28;;;;;;;3.72;1.80;;;15.90;99.90;;;;;;5071441;28;20238;-57
2023/11/13 12:01:55;;;;;;;2.97;1.50;;;16.00;99.90;;;;;;5071193;28;20300;-57
2023/11/13 12:04:22;;;;;;;4.82;1.80;;;15.90;99.90;;;;;;5071037;28;20204;-58
2023/11/13 12:06:51;;;;;;;5.70;3.05;;;16.00;99.90;;;;;;5071144;28;20216;-59
2023/11/13 12:09:18;;;;;;;4.43;1.63;;;16.10;99.90;;;;;;5071206;28;20215;-59
2023/11/13 12:11:46;;;;;;;2.95;1.65;;;16.10;99.90;;;;;;5070802;28;20209;-58
2023/11/13 12:14:13;;;;;;;6.13;1.60;;;16.20;99.90;;;;;;5070942;28;20225;-59
2023/11/13 12:16:41;;;;;;;6.55;1.92;;;16.20;99.90;;;;;;5070796;28;20204;-59
2023/11/13 12:19:09;;;;;;;4.13;2.10;;;16.20;99.90;;;;;;5070741;28;20613;-59
2023/11/13 12:21:36;;;;;;;4.97;2.00;;;16.20;99.90;;;;;;5070813;28;20201;-59
2023/11/13 12:24:03;;;;;;;8.43;2.28;;;16.20;99.90;;;;;;5070523;28;20752;-57
2023/11/13 12:26:30;;;;;;;4.10;1.57;;;16.20;99.90;;;;;;5071237;28;20205;-58
2023/11/13 12:28:57;;;;;;;3.97;2.00;;;16.10;99.90;;;;;;5070934;28;20258;-58
2023/11/13 12:31:24;;;;;;;5.50;2.20;;;16.20;99.90;;;;;;5071179;28;20214;-58
2023/11/13 12:33:52;;;;;;;4.03;1.90;;;16.20;99.90;;;;;;5070577;28;20702;-58
2023/11/13 12:36:19;;;;;;;4.60;1.95;;;16.30;99.90;;;;;;5070706;28;20250;-58
2023/11/13 12:38:47;;;;;;;5.93;2.13;;;16.30;99.90;;;;;;5070190;28;20201;-58
2023/11/13 12:41:14;;;;;;;5.60;1.90;;;16.30;99.90;;;;;;5071170;28;20201;-60
2023/11/13 12:43:42;;;;;;;4.00;1.85;;;16.30;99.90;;;;;;5070605;28;20221;-58
2023/11/13 12:46:09;;;;;;;4.32;1.83;;;16.20;99.90;;;;;;5071046;28;20211;-58
2023/11/13 12:48:36;;;;;;;8.05;4.07;;;16.20;99.90;;;;;;5070395;28;20222;-57
2023/11/13 12:51:08;;;;;;;5.95;1.88;;;16.20;99.90;;;;;;5070484;28;20334;-59
2023/11/13 12:53:35;;;;;;;6.68;2.00;;;16.20;99.90;;;;;;5070251;28;20227;-59